createdAt,value
2019-04-28T00:01:33.414Z,6.00
2019-04-28T00:04:05.281Z,6.85
2019-04-28T00:06:37.535Z,5.53
2019-04-28T00:09:09.174Z,6.28
2019-04-28T00:11:39.115Z,5.97
2019-04-28T00:14:12.651Z,5.97
2019-04-28T00:16:42.630Z,6.55
2019-04-28T00:19:38.457Z,6.42
2019-04-28T00:21:55.087Z,6.03
2019-04-28T00:24:32.528Z,6.00
2019-04-28T00:27:07.867Z,6.40
2019-04-28T00:29:52.487Z,6.33
2019-04-28T00:35:04.153Z,6.75
2019-04-28T00:40:37.244Z,6.33
2019-04-28T00:43:07.689Z,6.90
2019-04-28T00:45:36.801Z,6.67
2019-04-28T00:48:12.547Z,6.20
2019-04-28T00:50:43.813Z,6.10
2019-04-28T00:53:20.691Z,6.50
2019-04-28T00:55:47.849Z,6.83
2019-04-28T00:58:16.605Z,7.45
2019-04-28T01:00:51.396Z,7.33
2019-04-28T01:03:25.931Z,6.83
2019-04-28T01:06:07.689Z,6.65
2019-04-28T01:08:38.129Z,6.87
2019-04-28T01:11:07.654Z,6.87
2019-04-28T01:13:42.999Z,7.08
2019-04-28T01:16:15.376Z,6.15
2019-04-28T01:18:50.207Z,6.25
2019-04-28T01:21:24.168Z,7.00
2019-04-28T01:23:54.064Z,6.47
2019-04-28T01:26:23.547Z,6.50
2019-04-28T01:28:54.266Z,7.85
2019-04-28T01:31:31.900Z,7.78
2019-04-28T01:34:20.949Z,6.35
2019-04-28T01:37:00.255Z,6.37
2019-04-28T01:39:31.260Z,6.58
2019-04-28T01:42:12.471Z,6.58
2019-04-28T01:44:49.474Z,6.65
2019-04-28T01:47:20.463Z,7.87
2019-04-28T01:49:50.364Z,7.10
2019-04-28T01:52:24.210Z,7.12
2019-04-28T01:55:02.035Z,7.58
2019-04-28T01:57:40.004Z,7.28
2019-04-28T02:00:22.961Z,7.20
2019-04-28T02:02:51.067Z,7.53
2019-04-28T02:05:22.772Z,7.58
2019-04-28T02:07:53.156Z,7.83
2019-04-28T02:10:24.439Z,7.80
2019-04-28T02:13:11.465Z,7.97
2019-04-28T02:15:42.113Z,8.73
2019-04-28T02:18:33.673Z,7.65
2019-04-28T02:21:09.667Z,8.40
2019-04-28T02:23:40.763Z,8.08
2019-04-28T02:26:10.469Z,8.03
2019-04-28T02:28:44.226Z,8.65
2019-04-28T02:31:13.285Z,8.43
2019-04-28T02:33:43.986Z,8.13
2019-04-28T02:36:20.722Z,8.58
2019-04-28T02:39:01.681Z,8.83
2019-04-28T02:41:45.314Z,9.93
2019-04-28T02:44:25.345Z,8.78
2019-04-28T02:46:57.495Z,8.85
2019-04-28T02:49:54.182Z,8.65
2019-04-28T02:52:31.514Z,7.92
2019-04-28T02:55:04.898Z,8.48
2019-04-28T02:57:40.435Z,8.98
2019-04-28T03:00:15.161Z,8.20
2019-04-28T03:05:41.019Z,8.45
2019-04-28T03:08:11.122Z,7.80
2019-04-28T03:10:42.305Z,8.03
2019-04-28T03:13:15.814Z,7.72
2019-04-28T03:15:46.457Z,8.28
2019-04-28T03:18:21.190Z,7.67
2019-04-28T03:20:56.900Z,7.12
2019-04-28T03:23:31.089Z,8.13
2019-04-28T03:26:06.021Z,8.08
2019-04-28T03:28:54.028Z,8.03
2019-04-28T03:31:51.012Z,7.67
2019-04-28T03:34:04.027Z,7.35
2019-04-28T03:36:33.722Z,7.87
2019-04-28T03:39:11.245Z,8.05
2019-04-28T03:41:50.576Z,7.05
2019-04-28T03:44:26.833Z,8.23
2019-04-28T03:47:02.702Z,7.53
2019-04-28T03:50:07.011Z,6.75
2019-04-28T03:52:36.500Z,7.12
2019-04-28T03:55:08.110Z,6.50
2019-04-28T03:57:41.205Z,6.87
2019-04-28T04:00:17.309Z,6.87
2019-04-28T04:02:54.954Z,6.92
2019-04-28T04:05:26.614Z,6.78
2019-04-28T04:08:00.587Z,6.28
2019-04-28T04:10:32.470Z,6.47
2019-04-28T04:13:04.739Z,6.53
2019-04-28T04:15:50.766Z,6.20
2019-04-28T04:18:22.400Z,6.53
2019-04-28T04:20:53.799Z,6.10
2019-04-28T04:23:25.188Z,6.12
2019-04-28T04:25:54.605Z,6.25
2019-04-28T04:28:26.144Z,6.47
2019-04-28T04:31:00.499Z,5.95
2019-04-28T04:33:31.170Z,5.17
2019-04-28T04:36:01.827Z,6.55
2019-04-28T04:38:34.417Z,5.65
2019-04-28T04:41:04.489Z,6.40
2019-04-28T04:43:34.022Z,5.97
2019-04-28T04:46:17.996Z,6.00
2019-04-28T04:48:50.759Z,5.78
2019-04-28T04:51:24.686Z,6.58
2019-04-28T04:53:55.921Z,6.05
2019-04-28T04:56:30.221Z,5.83
2019-04-28T04:59:02.824Z,6.05
2019-04-28T05:01:44.478Z,5.40
2019-04-28T05:04:25.984Z,6.05
2019-04-28T05:09:54.269Z,6.22
2019-04-28T05:12:25.182Z,6.08
2019-04-28T05:14:54.364Z,5.92
2019-04-28T05:23:51.068Z,5.95
2019-04-28T05:32:03.635Z,5.28
2019-04-28T05:34:46.697Z,6.42
2019-04-28T05:40:10.468Z,5.53
2019-04-28T05:42:49.716Z,6.20
2019-04-28T05:54:55.983Z,6.50
2019-04-28T05:57:39.737Z,6.60
2019-04-28T06:03:11.911Z,6.17
2019-04-28T06:05:53.045Z,6.87
2019-04-28T06:11:32.429Z,7.22
2019-04-28T06:14:20.714Z,7.47
2019-04-28T06:17:20.578Z,7.03
2019-04-28T06:19:50.448Z,7.40
2019-04-28T06:22:21.588Z,8.03
2019-04-28T06:24:52.811Z,7.30
2019-04-28T06:33:19.265Z,7.58
2019-04-28T06:39:02.355Z,8.88
2019-04-28T06:41:34.274Z,8.58
2019-04-28T06:44:03.175Z,8.65
2019-04-28T06:46:32.498Z,8.35
2019-04-28T06:49:06.780Z,8.95
2019-04-28T06:51:37.409Z,9.05
2019-04-28T06:56:56.669Z,10.18
2019-04-28T06:59:26.213Z,9.85
2019-04-28T07:02:01.733Z,9.30
2019-04-28T07:04:31.464Z,9.83
2019-04-28T07:07:01.205Z,10.48
2019-04-28T07:09:39.196Z,10.30
2019-04-28T07:12:08.198Z,10.53
2019-04-28T07:14:38.057Z,10.08
2019-04-28T07:17:06.982Z,10.40
2019-04-28T07:19:36.089Z,10.00
2019-04-28T07:22:24.637Z,10.35
2019-04-28T07:24:54.863Z,10.10
2019-04-28T07:27:23.629Z,9.30
2019-04-28T07:29:54.471Z,9.70
2019-04-28T07:32:30.863Z,9.23
2019-04-28T07:35:01.944Z,9.90
2019-04-28T07:37:32.744Z,9.15
2019-04-28T07:40:08.675Z,9.60
2019-04-28T07:42:45.608Z,9.58
2019-04-28T07:45:17.047Z,9.90
2019-04-28T07:47:58.949Z,9.35
2019-04-28T07:50:30.659Z,9.63
2019-04-28T07:53:04.612Z,10.35
2019-04-28T07:55:34.128Z,9.73
2019-04-28T07:58:02.932Z,10.18
2019-04-28T08:00:33.631Z,9.50
2019-04-28T08:03:03.479Z,9.95
2019-04-28T08:05:34.611Z,10.48
2019-04-28T08:08:06.040Z,9.40
2019-04-28T08:10:37.925Z,10.50
2019-04-28T08:13:08.499Z,9.73
2019-04-28T08:15:47.656Z,10.20
2019-04-28T08:18:19.503Z,9.88
2019-04-28T08:20:49.767Z,9.55
2019-04-28T08:23:22.761Z,9.55
2019-04-28T08:25:54.323Z,9.90
2019-04-28T08:28:28.580Z,9.70
2019-04-28T08:30:58.594Z,9.33
2019-04-28T08:33:43.724Z,9.00
2019-04-28T08:36:14.968Z,10.20
2019-04-28T08:38:46.318Z,9.00
2019-04-28T08:41:27.531Z,9.68
2019-04-28T08:43:56.646Z,9.53
2019-04-28T08:46:26.952Z,9.25
2019-04-28T08:51:48.952Z,8.55
2019-04-28T08:54:22.544Z,9.90
2019-04-28T08:56:51.339Z,9.48
2019-04-28T08:59:20.440Z,9.58
2019-04-28T09:01:51.211Z,9.78
2019-04-28T09:04:26.161Z,8.78
2019-04-28T09:06:55.088Z,7.85
2019-04-28T09:09:25.296Z,8.68
2019-04-28T09:11:59.367Z,9.38
2019-04-28T09:14:31.049Z,8.73
2019-04-28T09:17:02.002Z,8.78
2019-04-28T09:19:31.051Z,8.85
2019-04-28T09:24:54.603Z,8.55
2019-04-28T09:27:27.209Z,8.48
2019-04-28T09:29:55.964Z,8.68
2019-04-28T09:32:25.447Z,8.38
2019-04-28T09:34:56.078Z,8.33
2019-04-28T09:37:26.319Z,7.40
2019-04-28T09:40:00.605Z,7.90
2019-04-28T09:42:31.205Z,8.85
2019-04-28T09:45:07.329Z,7.65
2019-04-28T09:47:35.794Z,8.15
2019-04-28T09:50:06.116Z,8.10
2019-04-28T09:52:35.384Z,7.72
2019-04-28T09:55:04.974Z,7.35
2019-04-28T09:57:35.594Z,7.80
2019-04-28T10:00:11.327Z,7.35
2019-04-28T10:02:40.008Z,7.78
2019-04-28T10:05:09.514Z,7.10
2019-04-28T10:07:38.715Z,6.80
2019-04-28T10:10:08.199Z,7.28
2019-04-28T10:12:37.387Z,7.80
2019-04-28T10:15:10.040Z,7.40
2019-04-28T10:17:39.018Z,7.45
2019-04-28T10:20:09.684Z,8.15
2019-04-28T10:22:38.491Z,7.42
2019-04-28T10:25:11.010Z,7.92
2019-04-28T10:27:41.172Z,7.17
2019-04-28T10:30:12.470Z,7.10
2019-04-28T10:32:43.195Z,7.85
2019-04-28T10:35:12.043Z,8.13
2019-04-28T10:37:41.473Z,7.47
2019-04-28T10:40:15.565Z,7.85
2019-04-28T10:42:45.930Z,7.40
2019-04-28T10:45:17.173Z,7.20
2019-04-28T10:47:45.937Z,7.22
2019-04-28T10:50:15.569Z,7.50
2019-04-28T10:52:44.380Z,7.78
2019-04-28T10:55:15.722Z,7.20
2019-04-28T10:57:44.478Z,6.78
2019-04-28T11:00:15.480Z,7.20
2019-04-28T11:02:44.175Z,6.03
2019-04-28T11:05:17.192Z,7.22
2019-04-28T11:07:46.260Z,6.33
2019-04-28T11:10:17.344Z,7.58
2019-04-28T11:12:47.248Z,6.85
2019-04-28T11:15:20.247Z,7.35
2019-04-28T11:17:48.998Z,7.35
2019-04-28T11:20:17.858Z,7.08
2019-04-28T11:22:46.572Z,7.40
2019-04-28T11:25:15.455Z,6.70
2019-04-28T11:27:45.328Z,7.62
2019-04-28T11:30:15.357Z,6.70
2019-04-28T11:32:51.426Z,7.05
2019-04-28T11:35:22.215Z,7.70
2019-04-28T11:37:51.912Z,6.87
2019-04-28T11:41:14.191Z,7.22
2019-04-28T11:43:43.065Z,7.35
2019-04-28T11:46:14.942Z,7.92
2019-04-28T11:48:44.022Z,6.95
2019-04-28T11:51:13.721Z,7.83
2019-04-28T11:53:44.556Z,6.60
2019-04-28T11:56:13.009Z,7.55
2019-04-28T11:58:43.244Z,6.95
2019-04-28T12:01:13.169Z,7.22
2019-04-28T12:03:41.886Z,7.28
2019-04-28T12:06:10.704Z,7.05
2019-04-28T12:08:39.441Z,7.03
2019-04-28T12:11:13.472Z,7.10
2019-04-28T12:13:59.245Z,7.40
2019-04-28T12:16:38.271Z,6.83
2019-04-28T12:19:11.459Z,6.90
2019-04-28T12:21:40.104Z,7.15
2019-04-28T12:24:14.291Z,6.75
2019-04-28T12:26:52.314Z,6.80
2019-04-28T12:29:21.945Z,7.25
2019-04-28T12:31:53.462Z,6.85
2019-04-28T12:34:23.492Z,7.25
2019-04-28T12:36:53.938Z,7.40
2019-04-28T12:39:22.925Z,6.92
2019-04-28T12:41:51.724Z,6.62
2019-04-28T12:44:20.477Z,6.10
2019-04-28T12:46:50.557Z,6.37
2019-04-28T12:49:20.945Z,5.33
2019-04-28T12:51:49.772Z,6.90
2019-04-28T12:54:20.134Z,5.70
2019-04-28T12:56:49.509Z,6.22
2019-04-28T12:59:20.579Z,5.60
2019-04-28T13:02:09.541Z,5.47
2019-04-28T13:04:51.883Z,5.97
2019-04-28T13:07:21.764Z,4.97
2019-04-28T13:09:50.574Z,5.15
2019-04-28T13:12:19.401Z,5.28
2019-04-28T13:14:48.197Z,5.85
2019-04-28T13:17:17.000Z,5.42
2019-04-28T13:19:45.771Z,4.83
2019-04-28T13:22:14.508Z,5.37
2019-04-28T13:24:44.303Z,5.12
2019-04-28T13:27:12.976Z,4.92
2019-04-28T13:29:41.712Z,5.50
2019-04-28T13:32:10.480Z,5.05
2019-04-28T13:34:40.781Z,5.05
2019-04-28T13:37:10.558Z,5.55
2019-04-28T13:39:43.750Z,4.65
2019-04-28T13:42:12.617Z,4.22
2019-04-28T13:44:49.087Z,4.70
2019-04-28T13:47:19.564Z,4.10
2019-04-28T13:49:53.115Z,4.40
2019-04-28T13:52:21.882Z,4.83
2019-04-28T13:54:52.488Z,3.95
2019-04-28T13:57:21.225Z,4.20
2019-04-28T13:59:52.820Z,4.00
2019-04-28T14:02:35.469Z,4.42
2019-04-28T14:05:09.837Z,4.22
2019-04-28T14:07:38.995Z,3.67
2019-04-28T14:10:08.338Z,4.22
2019-04-28T14:12:37.149Z,3.77
2019-04-28T14:15:06.686Z,3.58
2019-04-28T14:17:35.468Z,4.40
2019-04-28T14:20:06.846Z,3.87
2019-04-28T14:22:35.952Z,3.62
2019-04-28T14:25:06.137Z,3.55
2019-04-28T14:27:36.014Z,3.52
2019-04-28T14:30:06.882Z,3.60
2019-04-28T14:32:35.646Z,3.52
2019-04-28T14:35:07.472Z,3.67
2019-04-28T14:37:36.263Z,3.70
2019-04-28T14:40:08.214Z,3.35
2019-04-28T14:42:37.035Z,3.45
2019-04-28T14:45:07.432Z,3.50
2019-04-28T14:47:36.210Z,3.45
2019-04-28T14:50:06.444Z,2.98
2019-04-28T14:52:36.531Z,3.52
2019-04-28T14:55:07.756Z,3.80
2019-04-28T14:57:37.161Z,3.40
2019-04-28T15:00:07.827Z,3.22
2019-04-28T15:02:38.208Z,3.10
2019-04-28T15:05:23.623Z,3.22
2019-04-28T15:11:23.832Z,2.90
2019-04-28T15:13:55.306Z,2.92
2019-04-28T15:16:22.975Z,2.70
2019-04-28T15:18:52.490Z,3.10
2019-04-28T15:21:22.018Z,3.10
2019-04-28T15:23:52.177Z,3.08
2019-04-28T15:26:22.835Z,3.33
2019-04-28T15:28:51.691Z,3.50
2019-04-28T15:31:25.538Z,2.90
2019-04-28T15:33:54.702Z,3.43
2019-04-28T15:36:23.628Z,2.60
2019-04-28T15:38:52.311Z,3.00
2019-04-28T15:41:22.176Z,3.00
2019-04-28T15:43:51.051Z,3.00
2019-04-28T15:46:19.772Z,2.92
2019-04-28T15:49:45.796Z,3.15
2019-04-28T15:52:42.916Z,2.60
2019-04-28T15:56:09.265Z,2.45
2019-04-28T15:58:39.808Z,2.60
2019-04-28T16:01:08.953Z,2.75
2019-04-28T16:03:37.765Z,2.80
2019-04-28T16:06:06.503Z,2.45
2019-04-28T16:08:35.331Z,2.55
2019-04-28T16:11:04.435Z,2.33
2019-04-28T16:13:33.225Z,2.40
2019-04-28T16:16:01.907Z,2.33
2019-04-28T16:18:30.651Z,2.50
2019-04-28T16:20:59.440Z,2.52
2019-04-28T16:23:28.366Z,2.33
2019-04-28T16:25:57.136Z,2.10
2019-04-28T16:28:26.454Z,2.12
2019-04-28T16:30:55.377Z,2.30
2019-04-28T16:33:31.970Z,2.02
2019-04-28T16:36:01.191Z,2.22
2019-04-28T16:38:33.343Z,2.55
2019-04-28T16:41:07.913Z,2.60
2019-04-28T16:43:50.939Z,2.62
2019-04-28T16:46:21.095Z,2.85
2019-04-28T16:51:47.917Z,2.42
2019-04-28T16:54:16.969Z,2.60
2019-04-28T16:59:45.352Z,2.87
2019-04-28T17:02:16.059Z,2.77
2019-04-28T17:04:44.836Z,2.50
2019-04-28T17:07:18.380Z,2.67
2019-04-28T17:09:47.261Z,2.50
2019-04-28T17:12:20.664Z,2.33
2019-04-28T17:14:49.617Z,2.35
2019-04-28T17:23:14.117Z,2.08
2019-04-28T17:25:43.156Z,2.30
2019-04-28T17:28:12.068Z,2.72
2019-04-28T17:30:40.855Z,2.25
2019-04-28T17:33:12.483Z,2.08
2019-04-28T17:35:42.452Z,2.00
2019-04-28T17:38:17.756Z,1.95
2019-04-28T17:40:42.350Z,2.10
2019-04-28T17:43:13.998Z,2.15
2019-04-28T17:45:42.998Z,2.08
2019-04-28T17:48:28.555Z,1.95
2019-04-28T17:50:58.333Z,2.02
2019-04-28T17:54:24.094Z,2.25
2019-04-28T17:56:53.613Z,1.90
2019-04-28T17:59:22.527Z,1.80
2019-04-28T18:01:59.239Z,2.17
2019-04-28T18:04:32.548Z,2.12
2019-04-28T18:07:03.082Z,1.70
2019-04-28T18:09:32.032Z,2.40
2019-04-28T18:12:02.320Z,1.80
2019-04-28T18:14:33.852Z,1.72
2019-04-28T18:17:04.820Z,2.25
2019-04-28T18:19:34.060Z,1.85
2019-04-28T18:22:02.966Z,2.20
2019-04-28T18:24:33.299Z,1.85
2019-04-28T18:27:02.214Z,1.90
2019-04-28T18:29:31.064Z,1.90
2019-04-28T18:32:20.016Z,1.50
2019-04-28T18:38:10.366Z,1.70
2019-04-28T18:40:43.555Z,2.20
2019-04-28T18:43:45.427Z,2.27
2019-04-28T18:46:18.149Z,1.98
2019-04-28T18:48:47.088Z,1.87
2019-04-28T18:51:15.905Z,2.22
2019-04-28T18:53:59.821Z,2.65
2019-04-28T18:57:09.610Z,2.15
2019-04-28T18:59:39.004Z,1.85
2019-04-28T19:02:12.120Z,2.35
2019-04-28T19:04:41.768Z,2.60
2019-04-28T19:07:12.647Z,2.85
2019-04-28T19:09:44.924Z,2.15
2019-04-28T19:19:29.727Z,2.35
2019-04-28T19:22:11.090Z,2.40
2019-04-28T19:24:40.182Z,2.27
2019-04-28T19:27:09.348Z,2.25
2019-04-28T19:29:38.099Z,2.02
2019-04-28T19:32:08.973Z,2.20
2019-04-28T19:34:37.816Z,2.25
2019-04-28T19:37:06.660Z,2.85
2019-04-28T19:39:36.595Z,2.17
2019-04-28T19:42:07.914Z,2.20
2019-04-28T19:44:37.523Z,2.27
2019-04-28T19:47:06.766Z,2.67
2019-04-28T19:49:37.842Z,1.90
2019-04-28T19:52:09.166Z,1.85
2019-04-28T19:54:40.375Z,1.80
2019-04-28T19:57:17.195Z,2.52
2019-04-28T20:00:03.697Z,1.87
2019-04-28T20:02:33.518Z,1.80
2019-04-28T20:05:02.732Z,1.80
2019-04-28T20:07:40.863Z,1.85
2019-04-28T20:10:12.425Z,2.02
2019-04-28T20:12:41.193Z,2.00
2019-04-28T20:15:13.151Z,1.98
2019-04-28T20:17:41.920Z,2.10
2019-04-28T20:20:11.019Z,2.00
2019-04-28T20:22:39.825Z,1.80
2019-04-28T20:25:11.557Z,2.17
2019-04-28T20:27:42.291Z,1.98
2019-04-28T20:30:13.082Z,2.00
2019-04-28T20:32:52.198Z,1.95
2019-04-28T20:35:26.280Z,1.90
2019-04-28T20:38:13.354Z,1.80
2019-04-28T20:40:47.562Z,1.77
2019-04-28T20:43:19.902Z,1.90
2019-04-28T20:45:48.984Z,1.70
2019-04-28T20:48:19.545Z,1.85
2019-04-28T20:50:49.861Z,1.67
2019-04-28T20:53:21.914Z,2.00
2019-04-28T20:55:53.346Z,2.02
2019-04-28T20:58:22.135Z,1.92
2019-04-28T21:00:52.855Z,2.10
2019-04-28T21:03:22.594Z,1.92
2019-04-28T21:05:52.471Z,2.00
2019-04-28T21:08:23.762Z,1.95
2019-04-28T21:10:54.463Z,1.85
2019-04-28T21:13:24.239Z,2.00
2019-04-28T21:15:55.809Z,1.57
2019-04-28T21:18:25.096Z,1.98
2019-04-28T21:20:56.450Z,1.90
2019-04-28T21:23:26.977Z,2.27
2019-04-28T21:25:56.761Z,2.27
2019-04-28T21:28:28.057Z,2.30
2019-04-28T21:30:57.204Z,1.82
2019-04-28T21:33:26.674Z,1.98
2019-04-28T21:35:57.324Z,1.82
2019-04-28T21:38:27.193Z,2.00
2019-04-28T21:40:57.953Z,1.92
2019-04-28T21:43:41.891Z,2.00
2019-04-28T21:46:17.786Z,1.98
2019-04-28T21:48:49.505Z,2.17
2019-04-28T21:51:19.031Z,2.27
2019-04-28T21:53:50.392Z,2.17
2019-04-28T21:56:21.407Z,2.15
2019-04-28T21:58:55.526Z,1.98
2019-04-28T22:01:26.410Z,1.90
2019-04-28T22:03:59.539Z,2.10
2019-04-28T22:06:29.428Z,2.30
2019-04-28T22:09:02.139Z,1.82
2019-04-28T22:11:31.373Z,1.77
2019-04-28T22:14:02.154Z,1.80
2019-04-28T22:16:31.924Z,2.00
2019-04-28T22:19:01.756Z,2.15
2019-04-28T22:21:31.259Z,2.37
2019-04-28T22:24:08.613Z,2.05
2019-04-28T22:26:45.223Z,2.12
2019-04-28T22:29:14.882Z,2.05
2019-04-28T22:31:45.097Z,2.12
2019-04-28T22:34:14.636Z,2.10
2019-04-28T22:36:46.516Z,2.15
2019-04-28T22:39:16.394Z,2.30
2019-04-28T22:41:45.236Z,2.17
2019-04-28T22:44:14.040Z,2.20
2019-04-28T22:46:44.071Z,2.67
2019-04-28T22:49:14.735Z,2.15
2019-04-28T22:51:43.516Z,2.77
2019-04-28T22:54:30.239Z,2.47
2019-04-28T22:57:07.582Z,2.45
2019-04-28T22:59:38.048Z,1.90
2019-04-28T23:02:14.637Z,1.92
2019-04-28T23:04:48.981Z,2.70
2019-04-28T23:07:17.851Z,2.00
2019-04-28T23:09:48.885Z,1.90
2019-04-28T23:12:18.385Z,2.58
2019-04-28T23:14:48.959Z,2.45
2019-04-28T23:17:19.663Z,2.08
2019-04-28T23:19:49.238Z,2.12
2019-04-28T23:22:25.195Z,1.98
2019-04-28T23:24:54.861Z,2.10
2019-04-28T23:27:24.920Z,2.10
2019-04-28T23:29:55.508Z,2.70
2019-04-28T23:32:24.258Z,1.77
2019-04-28T23:34:52.993Z,1.85
2019-04-28T23:37:22.271Z,2.27
2019-04-28T23:39:52.239Z,2.33
2019-04-28T23:42:25.500Z,2.20
2019-04-28T23:44:55.317Z,2.15
2019-04-28T23:47:25.777Z,2.22
2019-04-28T23:49:55.721Z,2.10
2019-04-28T23:52:31.332Z,2.20
2019-04-28T23:55:02.011Z,2.20
2019-04-28T23:57:31.907Z,2.70
